Rome, Ohio
Current Conditions -  °F | °C
As of 8:27 AM on Tuesday 21 Oct 2014 (Local Time) from KHZY Reporting Station
Light Rain Light Rain  
Wind Chill: 50°   Ceiling: 2200
Heat Index: 50°   Visibility: 9mi
Dew Point: 48°   Wind: 3mph
Humidity: 93%   Direction: 320°NW
Pressure: 29.88"   Gusts: NA
Location:  41.61°N, 80.85°W
Report Text: KHZY 211227Z AUTO 32003KT 9SM -RA FEW014 BKN022 OVC060 10/09 A2988 RMK AO2 P0000 T01000089
Loading
Personal Weather Stations






























Interactive Weather Map
Tropical Storm Tracking
New forecast layout! Learn more

10-Day Weather Forecast

Advertisements
Track Severe Weather on mobile